Time;durP1;ratioP1;P1;durP2;ratioP2;P2;SDS_P1;SDS_P2;PMS_P1;PMS_P2;Temp;Humidity;BMP_temperature;BMP_pressure;BME280_temperature;BME280_humidity;BME280_pressure;Samples;Min_cycle;Max_cycle;Signal;HPM_P1;HPM_P2
2022/01/04 00:01:12;;;;;;;;;5.00;4.00;;;;;12.76;74.83;99565.25;5036078;28;66841;-62
2022/01/04 00:03:38;;;;;;;;;4.00;3.00;;;;;12.75;74.56;99555.72;5035634;28;75158;-63
2022/01/04 00:06:03;;;;;;;;;4.50;4.25;;;;;12.74;74.75;99549.63;5052194;28;45399;-64
2022/01/04 00:08:29;;;;;;;;;5.75;4.00;;;;;12.73;74.97;99549.78;5036122;28;61238;-64
2022/01/04 00:11:05;;;;;;;;;4.00;4.00;;;;;12.72;74.57;99535.81;5036744;28;45340;-64
2022/01/04 00:13:30;;;;;;;;;7.00;4.00;;;;;12.71;74.90;99528.91;5034863;28;46424;-63
2022/01/04 00:15:56;;;;;;;;;3.50;3.50;;;;;12.69;75.22;99522.19;5035735;28;67070;-62
2022/01/04 00:18:22;;;;;;;;;3.00;3.00;;;;;12.70;75.15;99524.63;5036725;28;45348;-63
2022/01/04 00:20:47;;;;;;;;;8.00;7.75;;;;;12.69;74.73;99519.53;5036566;28;45296;-62
2022/01/04 00:23:13;;;;;;;;;5.00;4.75;;;;;12.69;74.66;99509.00;5035442;28;67718;-64
2022/01/04 00:25:39;;;;;;;;;6.00;5.50;;;;;12.69;75.25;99498.44;5035026;28;45317;-65
2022/01/04 00:28:07;;;;;;;;;6.25;6.00;;;;;12.68;75.31;99496.81;5035168;28;45818;-62
2022/01/04 00:30:34;;;;;;;;;4.00;2.00;;;;;12.69;74.79;99493.19;5036412;28;45466;-62
2022/01/04 00:32:59;;;;;;;;;3.25;3.25;;;;;12.68;74.73;99479.16;5036306;28;46191;-64
2022/01/04 00:35:24;;;;;;;;;2.00;2.00;;;;;12.67;75.13;99472.25;5035366;28;67109;-61
2022/01/04 00:37:50;;;;;;;;;2.00;2.00;;;;;12.66;74.88;99473.25;5035411;28;60927;-64
2022/01/04 00:40:15;;;;;;;;;2.75;2.75;;;;;12.66;75.34;99461.91;5036183;28;45315;-65
2022/01/04 00:42:40;;;;;;;;;2.00;1.00;;;;;12.67;74.81;99453.00;5035333;28;59268;-64
2022/01/04 00:45:06;;;;;;;;;2.00;2.00;;;;;12.65;74.88;99450.53;5037277;28;71308;-62
2022/01/04 00:50:20;;;;;;;;;2.00;1.00;;;;;12.66;74.87;99430.28;5038403;28;45336;-63
2022/01/04 00:52:46;;;;;;;;;3.75;2.00;;;;;12.65;75.19;99433.91;5039617;28;45673;-62
2022/01/04 00:55:11;;;;;;;;;2.00;1.50;;;;;12.64;75.25;99419.09;5038326;28;73195;-64
2022/01/04 00:57:37;;;;;;;;;1.25;1.25;;;;;12.65;75.08;99423.38;5037618;28;62589;-64
2022/01/04 01:00:04;;;;;;;;;1.00;1.00;;;;;12.65;75.05;99420.75;5055134;28;45442;-61
2022/01/04 01:02:29;;;;;;;;;1.00;1.00;;;;;12.65;75.25;99411.00;5038168;28;45598;-63
2022/01/04 01:04:55;;;;;;;;;1.00;1.00;;;;;12.65;75.35;99412.84;5038721;28;64722;-61
2022/01/04 01:07:20;;;;;;;;;1.00;1.00;;;;;12.65;75.25;99405.72;5038625;28;66361;-63
2022/01/04 01:10:08;;;;;;;;;1.00;1.00;;;;;12.68;75.06;99399.31;5038499;28;66028;-61
2022/01/04 01:12:31;;;;;;;;;0.50;0.50;;;;;12.67;75.18;99393.19;5039115;28;45461;-62
2022/01/04 01:14:56;;;;;;;;;1.00;1.00;;;;;12.67;75.07;99389.75;5038428;28;66607;-64
2022/01/04 01:17:21;;;;;;;;;1.00;1.00;;;;;12.68;75.68;99386.94;5039116;28;46699;-63
2022/01/04 01:19:47;;;;;;;;;1.00;1.00;;;;;12.69;75.76;99377.22;5038537;28;63161;-63
2022/01/04 01:22:12;;;;;;;;;0.00;0.00;;;;;12.70;75.20;99369.13;5038733;28;56626;-61
2022/01/04 01:24:37;;;;;;;;;0.00;0.00;;;;;12.70;75.33;99369.13;5039204;28;45736;-65
2022/01/04 01:27:03;;;;;;;;;2.00;1.00;;;;;12.72;75.43;99369.75;5038300;28;68383;-62
2022/01/04 01:29:28;;;;;;;;;1.00;1.00;;;;;12.73;75.04;99363.50;5054716;28;45410;-62
2022/01/04 01:31:54;;;;;;;;;0.25;0.25;;;;;12.74;75.12;99361.66;5039173;28;45497;-61
2022/01/04 01:34:19;;;;;;;;;2.75;0.25;;;;;12.74;75.59;99353.75;5039021;28;45516;-63
2022/01/04 01:36:45;;;;;;;;;1.25;0.75;;;;;12.75;75.35;99356.22;5038967;28;45464;-64
2022/01/04 01:39:10;;;;;;;;;2.75;2.00;;;;;12.77;75.03;99353.41;5038153;28;65786;-63
2022/01/04 01:41:35;;;;;;;;;2.00;1.00;;;;;12.74;74.10;99348.50;5037787;28;75681;-62
2022/01/04 01:44:01;;;;;;;;;2.25;2.25;;;;;12.69;73.32;99345.59;5037812;28;72094;-61
2022/01/04 01:46:26;;;;;;;;;2.00;1.00;;;;;12.61;73.22;99343.84;5038143;28;59655;-64
2022/01/04 01:48:51;;;;;;;;;1.00;1.00;;;;;12.51;73.26;99344.09;5038042;28;65083;-63
2022/01/04 01:51:17;;;;;;;;;1.00;1.00;;;;;12.43;73.75;99331.00;5037832;28;67125;-64
2022/01/04 01:53:46;;;;;;;;;1.00;1.00;;;;;12.39;73.34;99329.72;5037293;28;45398;-63
2022/01/04 01:56:11;;;;;;;;;1.00;1.00;;;;;12.34;73.20;99318.88;5036336;28;45364;-63
2022/01/04 01:58:37;;;;;;;;;1.50;0.50;;;;;12.27;73.22;99319.59;5038012;28;61362;-64
2022/01/04 02:01:02;;;;;;;;;1.00;1.00;;;;;12.23;72.93;99306.97;5037663;28;68809;-63
2022/01/04 02:03:27;;;;;;;;;0.75;0.75;;;;;12.17;73.09;99303.25;5037699;28;66669;-62
2022/01/04 02:05:53;;;;;;;;;0.00;0.00;;;;;12.11;73.04;99293.41;5036710;28;61796;-63
2022/01/04 02:08:18;;;;;;;;;0.00;0.00;;;;;12.06;72.91;99287.84;5036469;28;65572;-62
2022/01/04 02:10:44;;;;;;;;;0.00;0.00;;;;;12.01;72.82;99291.00;5036507;28;68434;-63
2022/01/04 02:13:09;;;;;;;;;0.00;0.00;;;;;11.96;72.03;99294.13;5037076;28;46009;-64
2022/01/04 02:15:35;;;;;;;;;0.25;0.00;;;;;11.90;72.47;99289.56;5038462;28;45375;-63
2022/01/04 02:18:00;;;;;;;;;0.00;0.00;;;;;11.85;72.16;99281.38;5038450;28;45592;-61
2022/01/04 02:20:26;;;;;;;;;0.00;0.00;;;;;11.80;72.42;99281.91;5038161;28;46037;-63
2022/01/04 02:22:52;;;;;;;;;0.00;0.00;;;;;11.75;72.37;99279.00;5038303;28;45228;-63
2022/01/04 02:25:17;;;;;;;;;0.00;0.00;;;;;11.68;72.51;99265.69;5038525;28;45383;-62
2022/01/04 02:27:42;;;;;;;;;0.00;0.00;;;;;11.65;72.25;99255.53;5038211;28;45444;-63
2022/01/04 02:30:11;;;;;;;;;1.00;1.00;;;;;11.62;72.17;99260.31;5037958;28;46008;-62
2022/01/04 02:32:36;;;;;;;;;0.00;0.00;;;;;11.56;72.57;99246.88;5053364;28;45790;-61
2022/01/04 02:35:02;;;;;;;;;0.00;0.00;;;;;11.53;72.43;99239.31;5038136;28;45689;-61
2022/01/04 02:37:27;;;;;;;;;0.00;0.00;;;;;11.51;72.87;99240.50;5036833;28;45265;-61
2022/01/04 02:39:53;;;;;;;;;0.00;0.00;;;;;11.48;72.37;99235.59;5037850;28;45320;-62
2022/01/04 02:42:19;;;;;;;;;0.00;0.00;;;;;11.45;72.23;99222.78;5036735;28;45391;-61
2022/01/04 02:44:44;;;;;;;;;0.00;0.00;;;;;11.43;72.35;99215.88;5037373;28;61142;-63
2022/01/04 02:47:10;;;;;;;;;0.00;0.00;;;;;11.39;72.44;99219.84;5037326;28;57132;-64
2022/01/04 02:49:35;;;;;;;;;0.00;0.00;;;;;11.37;73.10;99218.41;5037965;28;46184;-61
2022/01/04 02:52:01;;;;;;;;;0.00;0.00;;;;;11.35;72.93;99205.41;5037813;28;45295;-63
2022/01/04 02:54:26;;;;;;;;;0.00;0.00;;;;;11.34;73.20;99206.41;5037273;28;55646;-63
2022/01/04 02:56:51;;;;;;;;;0.00;0.00;;;;;11.33;73.00;99201.34;5037002;28;63431;-62
2022/01/04 02:59:17;;;;;;;;;0.00;0.00;;;;;11.31;72.31;99196.22;5036666;28;71522;-63
2022/01/04 03:01:42;;;;;;;;;0.00;0.00;;;;;11.26;72.73;99182.78;5036763;28;68276;-61
2022/01/04 03:04:08;;;;;;;;;0.00;0.00;;;;;11.23;72.55;99181.34;5037779;28;45552;-62
2022/01/04 03:06:34;;;;;;;;;0.00;0.00;;;;;11.20;72.39;99170.31;5037526;28;45274;-61
2022/01/04 03:08:59;;;;;;;;;0.00;0.00;;;;;11.14;72.96;99158.72;5037290;28;46558;-65
2022/01/04 03:11:25;;;;;;;;;0.50;0.00;;;;;11.12;72.73;99161.53;5036747;28;62598;-63
2022/01/04 03:13:50;;;;;;;;;0.00;0.00;;;;;11.09;72.65;99161.88;5036654;28;61783;-60
2022/01/04 03:16:15;;;;;;;;;0.00;0.00;;;;;11.07;72.54;99158.59;5036509;28;62931;-63
2022/01/04 03:19:02;;;;;;;;;0.00;0.00;;;;;11.06;72.95;99146.44;5036722;28;58901;-62
2022/01/04 03:21:26;;;;;;;;;0.50;0.50;;;;;11.02;72.63;99145.16;5037021;28;45610;-64
2022/01/04 03:23:52;;;;;;;;;0.00;0.00;;;;;11.01;72.90;99138.25;5036452;28;65782;-63
2022/01/04 03:26:17;;;;;;;;;0.00;0.00;;;;;10.99;73.13;99141.03;5036080;28;45331;-62
2022/01/04 03:28:42;;;;;;;;;0.00;0.00;;;;;10.97;73.01;99144.84;5034863;28;67665;-63
2022/01/04 03:31:08;;;;;;;;;0.00;0.00;;;;;10.96;73.14;99138.75;5036925;28;45376;-62
2022/01/04 03:33:36;;;;;;;;;0.00;0.00;;;;;10.93;73.33;99122.53;5036478;28;66272;-63
2022/01/04 03:36:05;;;;;;;;;0.00;0.00;;;;;10.93;73.34;99130.41;5037126;28;45328;-64
2022/01/04 03:38:30;;;;;;;;;1.00;1.00;;;;;10.90;73.11;99120.25;5036803;28;45417;-63
2022/01/04 03:40:56;;;;;;;;;0.00;0.00;;;;;10.91;73.30;99121.88;5051714;28;64408;-63
2022/01/04 03:43:24;;;;;;;;;0.00;0.00;;;;;10.90;73.34;99115.00;5035794;28;45384;-64
2022/01/04 03:45:49;;;;;;;;;0.00;0.00;;;;;10.89;73.48;99113.34;5036998;28;45521;-64
2022/01/04 03:48:15;;;;;;;;;0.00;0.00;;;;;10.87;73.08;99110.09;5035916;28;72190;-63
2022/01/04 03:50:40;;;;;;;;;0.00;0.00;;;;;10.87;73.68;99104.81;5036241;28;55518;-62
2022/01/04 03:53:06;;;;;;;;;0.00;0.00;;;;;10.88;73.35;99102.00;5035716;28;45282;-62
2022/01/04 03:55:31;;;;;;;;;0.00;0.00;;;;;10.88;73.16;99106.47;5035494;28;45577;-61
2022/01/04 03:57:56;;;;;;;;;0.00;0.00;;;;;10.88;73.47;99106.47;5036421;28;45297;-63
2022/01/04 04:00:22;;;;;;;;;0.00;0.00;;;;;10.87;73.09;99110.09;5035861;28;65896;-62
2022/01/04 04:02:47;;;;;;;;;0.00;0.00;;;;;10.87;73.27;99096.94;5036044;28;63137;-64
2022/01/04 04:05:13;;;;;;;;;0.00;0.00;;;;;10.87;73.00;99102.19;5036307;28;55404;-63
2022/01/04 04:07:38;;;;;;;;;0.00;0.00;;;;;10.87;72.60;99102.19;5036562;28;45443;-65
2022/01/04 04:10:04;;;;;;;;;0.00;0.00;;;;;10.85;72.36;99097.13;5036607;28;45387;-62
2022/01/04 04:12:29;;;;;;;;;0.00;0.00;;;;;10.84;72.63;99103.38;5035347;28;45429;-62
2022/01/04 04:14:58;;;;;;;;;0.00;0.00;;;;;10.79;72.76;99103.88;5035622;28;65318;-63
2022/01/04 04:17:23;;;;;;;;;0.00;0.00;;;;;10.77;72.56;99095.34;5051536;28;46565;-64
2022/01/04 04:19:49;;;;;;;;;0.00;0.00;;;;;10.76;72.56;99100.78;5034761;28;67158;-61
2022/01/04 04:22:14;;;;;;;;;0.00;0.00;;;;;10.73;72.48;99094.06;5036449;28;45391;-62
2022/01/04 04:24:40;;;;;;;;;0.00;0.00;;;;;10.71;72.88;99092.59;5036495;28;45345;-63
2022/01/04 04:27:05;;;;;;;;;0.00;0.00;;;;;10.69;72.86;99090.97;5035215;28;73415;-62
2022/01/04 04:29:30;;;;;;;;;0.00;0.00;;;;;10.68;72.61;99096.38;5035802;28;58220;-61
2022/01/04 04:31:56;;;;;;;;;0.00;0.00;;;;;10.68;72.75;99096.38;5035662;28;60458;-64
2022/01/04 04:34:21;;;;;;;;;0.00;0.00;;;;;10.67;72.32;99092.13;5035549;28;60864;-61
2022/01/04 04:36:47;;;;;;;;;0.00;0.00;;;;;10.66;72.51;99088.69;5036126;28;46304;-62
2022/01/04 04:39:12;;;;;;;;;0.00;0.00;;;;;10.65;72.91;99096.72;5033793;28;72041;-62
2022/01/04 04:41:37;;;;;;;;;0.00;0.00;;;;;10.65;72.31;99092.31;5035230;28;69251;-65
2022/01/04 04:44:03;;;;;;;;;1.00;0.00;;;;;10.64;72.48;99093.28;5036208;28;45603;-63
2022/01/04 04:46:28;;;;;;;;;0.00;0.00;;;;;10.63;72.16;99098.69;5035893;28;52868;-62
2022/01/04 04:48:54;;;;;;;;;0.00;0.00;;;;;10.61;72.35;99100.69;5035259;28;65047;-63
2022/01/04 04:51:19;;;;;;;;;0.00;0.00;;;;;10.58;72.45;99099.22;5035322;28;63491;-62
2022/01/04 04:53:44;;;;;;;;;0.00;0.00;;;;;10.56;72.45;99103.84;5035769;28;45486;-63
2022/01/04 04:56:10;;;;;;;;;0.00;0.00;;;;;10.53;72.82;99112.88;5034945;28;71886;-62
2022/01/04 04:58:36;;;;;;;;;0.00;0.00;;;;;10.49;72.61;99108.97;5035828;28;45318;-63
2022/01/04 05:01:01;;;;;;;;;0.00;0.00;;;;;10.42;72.80;99107.16;5036038;28;45222;-61
2022/01/04 05:03:27;;;;;;;;;0.00;0.00;;;;;10.38;72.55;99109.31;5035222;28;57850;-62
2022/01/04 05:05:52;;;;;;;;;0.00;0.00;;;;;10.35;73.00;99107.00;5035047;28;66238;-62
2022/01/04 05:08:17;;;;;;;;;0.00;0.00;;;;;10.30;72.83;99118.03;5034836;28;71487;-63
2022/01/04 05:10:43;;;;;;;;;0.00;0.00;;;;;10.24;73.17;99116.09;5035033;28;62345;-62
2022/01/04 05:13:08;;;;;;;;;0.00;0.00;;;;;10.22;72.79;99118.06;5034996;28;61310;-63
2022/01/04 05:15:33;;;;;;;;;0.00;0.00;;;;;10.19;72.85;99118.38;5034788;28;73747;-62
2022/01/04 05:17:59;;;;;;;;;0.00;0.00;;;;;10.13;72.83;99124.31;5035796;28;45319;-64
2022/01/04 05:20:24;;;;;;;;;0.00;0.00;;;;;10.10;73.23;99126.28;5035624;28;45229;-62
2022/01/04 05:22:50;;;;;;;;;0.00;0.00;;;;;10.08;73.05;99132.66;5035012;28;63614;-62
2022/01/04 05:25:15;;;;;;;;;0.00;0.00;;;;;10.07;73.39;99136.28;5034542;28;71921;-64
2022/01/04 05:27:40;;;;;;;;;0.00;0.00;;;;;10.06;73.95;99137.28;5034695;28;68946;-63
2022/01/04 05:30:06;;;;;;;;;0.00;0.00;;;;;10.06;73.56;99132.03;5036466;28;45537;-62
2022/01/04 05:32:31;;;;;;;;;0.00;0.00;;;;;10.07;73.10;99131.88;5038694;28;45590;-62
2022/01/04 05:34:57;;;;;;;;;0.00;0.00;;;;;10.05;73.49;99139.09;5037917;28;74349;-61
2022/01/04 05:37:22;;;;;;;;;0.00;0.00;;;;;10.04;73.31;99139.25;5053207;28;72216;-64
2022/01/04 05:39:47;;;;;;;;;1.00;0.00;;;;;10.03;73.09;99141.06;5039024;28;45378;-63
2022/01/04 05:42:13;;;;;;;;;0.00;0.00;;;;;10.02;73.38;99143.84;5038653;28;46413;-62
2022/01/04 05:44:38;;;;;;;;;0.00;0.00;;;;;10.01;73.48;99135.16;5036322;28;70629;-63
2022/01/04 05:47:05;;;;;;;;;1.00;0.00;;;;;10.00;73.03;99127.47;5052954;28;45502;-63
2022/01/04 05:49:30;;;;;;;;;0.00;0.00;;;;;9.99;73.46;99125.81;5038838;28;45343;-62
2022/01/04 05:51:56;;;;;;;;;0.00;0.00;;;;;9.97;73.20;99133.84;5037818;28;66794;-62
2022/01/04 05:54:21;;;;;;;;;0.00;0.00;;;;;9.97;73.41;99125.97;5038252;28;45409;-63
2022/01/04 05:56:46;;;;;;;;;0.00;0.00;;;;;9.95;73.64;99128.78;5037942;28;59346;-63
2022/01/04 05:59:12;;;;;;;;;0.00;0.00;;;;;9.94;72.88;99127.13;5038758;28;45338;-63
2022/01/04 06:01:37;;;;;;;;;0.00;0.00;;;;;9.95;73.38;99125.31;5037913;28;58199;-63
2022/01/04 06:04:03;;;;;;;;;0.00;0.00;;;;;9.94;73.19;99131.56;5037393;28;74087;-61
2022/01/04 06:06:28;;;;;;;;;0.00;0.00;;;;;9.91;73.50;99132.72;5038358;28;47167;-64
2022/01/04 06:08:54;;;;;;;;;0.75;0.00;;;;;9.95;73.13;99134.03;5038503;28;45344;-62
2022/01/04 06:16:47;;;;;;;;;0.75;0.75;;;;;9.94;73.57;99134.19;5051423;28;45252;-62
2022/01/04 06:19:12;;;;;;;;;1.00;1.00;;;;;9.94;73.38;99135.00;5036756;28;45407;-61
2022/01/04 06:21:38;;;;;;;;;0.00;0.00;;;;;9.97;73.59;99125.16;5037504;28;64266;-64
2022/01/04 06:24:03;;;;;;;;;1.00;1.00;;;;;9.97;73.29;99123.34;5038092;28;45418;-63
2022/01/04 06:26:29;;;;;;;;;1.00;1.00;;;;;9.97;73.67;99123.34;5037850;28;47715;-63
2022/01/04 06:28:54;;;;;;;;;1.00;1.00;;;;;9.97;73.58;99125.97;5038141;28;45317;-62
2022/01/04 06:31:20;;;;;;;;;0.50;0.00;;;;;9.98;73.22;99143.34;5036966;28;70259;-61
2022/01/04 06:33:45;;;;;;;;;1.00;1.00;;;;;9.99;73.22;99139.75;5052371;28;74123;-63
2022/01/04 06:36:10;;;;;;;;;1.25;1.25;;;;;10.00;73.39;99146.63;5035393;28;71500;-62
2022/01/04 06:38:36;;;;;;;;;1.00;1.00;;;;;9.99;73.18;99155.50;5036793;28;69389;-62
2022/01/04 06:41:01;;;;;;;;;2.00;2.00;;;;;10.00;73.45;99164.19;5036909;28;66046;-60
2022/01/04 06:43:26;;;;;;;;;2.00;2.00;;;;;10.00;73.41;99172.06;5034694;28;62244;-63
2022/01/04 06:45:52;;;;;;;;;1.50;1.50;;;;;10.00;73.38;99179.94;5035818;28;62025;-62
2022/01/04 06:48:17;;;;;;;;;2.75;2.75;;;;;9.99;73.09;99170.44;5037041;28;61267;-65
2022/01/04 06:50:42;;;;;;;;;2.00;2.00;;;;;10.00;73.33;99177.31;5036847;28;61608;-63
2022/01/04 06:53:08;;;;;;;;;5.25;4.25;;;;;9.99;73.27;99180.94;5035447;28;65247;-62
2022/01/04 06:55:33;;;;;;;;;5.25;5.25;;;;;9.98;72.99;99181.91;5036490;28;68876;-61
2022/01/04 06:57:59;;;;;;;;;10.75;10.25;;;;;9.97;73.57;99177.66;5036443;28;66587;-62
2022/01/04 07:00:24;;;;;;;;;6.25;5.50;;;;;9.95;73.36;99181.25;5037162;28;52542;-63
2022/01/04 07:02:49;;;;;;;;;3.00;3.00;;;;;9.97;73.41;99196.00;5036714;28;67397;-65
2022/01/04 07:05:15;;;;;;;;;4.00;3.00;;;;;9.95;73.20;99196.16;5036516;28;69761;-64
2022/01/04 07:07:40;;;;;;;;;3.00;3.00;;;;;9.93;73.17;99206.84;5037352;28;45256;-65
2022/01/04 07:10:06;;;;;;;;;3.00;3.00;;;;;9.94;73.04;99218.13;5037795;28;45358;-63
2022/01/04 07:12:31;;;;;;;;;6.75;5.50;;;;;9.94;73.37;99211.09;5036577;28;46191;-62
2022/01/04 07:14:57;;;;;;;;;3.50;3.50;;;;;9.92;73.32;99207.81;5036455;28;66725;-62
2022/01/04 07:17:22;;;;;;;;;6.00;5.00;;;;;9.92;73.39;99207.00;5036554;28;54192;-64
2022/01/04 07:19:49;;;;;;;;;7.00;6.00;;;;;9.91;73.39;99211.44;5037125;28;45504;-64
2022/01/04 07:22:14;;;;;;;;;6.00;6.00;;;;;9.90;73.27;99208.94;5036980;28;45385;-64
2022/01/04 07:24:39;;;;;;;;;5.25;5.25;;;;;9.91;73.55;99207.97;5036139;28;69051;-62
2022/01/04 07:27:05;;;;;;;;;7.00;6.00;;;;;9.89;73.27;99202.91;5036806;28;45404;-60
2022/01/04 07:29:30;;;;;;;;;5.00;5.00;;;;;9.89;73.18;99205.53;5035921;28;70098;-63
2022/01/04 07:31:56;;;;;;;;;5.00;5.00;;;;;9.89;73.42;99215.19;5036238;28;69415;-62
2022/01/04 07:34:22;;;;;;;;;6.00;6.00;;;;;9.87;73.54;99210.13;5037109;28;45344;-64
2022/01/04 07:36:47;;;;;;;;;7.50;5.75;;;;;9.88;73.47;99221.41;5037147;28;45299;-61
2022/01/04 07:39:12;;;;;;;;;6.75;5.50;;;;;9.88;73.55;99216.16;5036612;28;48635;-62
2022/01/04 07:41:38;;;;;;;;;6.75;6.25;;;;;9.86;73.59;99226.84;5035531;28;70793;-61
2022/01/04 07:44:03;;;;;;;;;10.00;9.00;;;;;9.87;73.89;99222.41;5036065;28;60051;-64
2022/01/04 07:46:29;;;;;;;;;10.25;8.75;;;;;9.88;73.30;99229.28;5036586;28;45212;-63
2022/01/04 07:48:54;;;;;;;;;11.00;7.75;;;;;9.87;73.58;99236.34;5036761;28;45346;-63
2022/01/04 07:51:20;;;;;;;;;7.75;6.00;;;;;9.87;73.57;99241.59;5036673;28;45414;-61
2022/01/04 07:53:45;;;;;;;;;7.00;6.00;;;;;9.87;73.33;99251.25;5035436;28;45319;-62
2022/01/04 07:56:11;;;;;;;;;8.75;7.00;;;;;9.86;73.44;99254.88;5036316;28;45723;-61
2022/01/04 07:58:36;;;;;;;;;9.50;7.00;;;;;9.85;73.63;99258.47;5052113;28;45498;-62
2022/01/04 08:01:02;;;;;;;;;7.00;6.25;;;;;9.86;73.41;99260.09;5035740;28;68674;-64
2022/01/04 08:03:27;;;;;;;;;8.25;6.75;;;;;9.84;73.56;99268.16;5036026;28;63641;-61
2022/01/04 08:05:52;;;;;;;;;7.00;6.00;;;;;9.85;73.54;99280.28;5036678;28;45624;-63
2022/01/04 08:08:18;;;;;;;;;8.00;8.00;;;;;9.86;73.58;99281.94;5034651;28;66117;-63
2022/01/04 08:10:45;;;;;;;;;8.00;7.00;;;;;9.87;73.57;99282.75;5036669;28;46459;-61
2022/01/04 08:13:11;;;;;;;;;8.00;8.00;;;;;9.87;73.18;99309.81;5051779;28;45372;-62
2022/01/04 08:15:36;;;;;;;;;8.50;7.25;;;;;9.86;73.51;99305.53;5036647;28;45612;-62
2022/01/04 08:18:01;;;;;;;;;16.50;13.50;;;;;9.88;73.18;99308.84;5036522;28;45175;-63
2022/01/04 08:20:27;;;;;;;;;19.00;15.25;;;;;9.88;73.35;99321.94;5036274;28;45261;-61
2022/01/04 08:22:52;;;;;;;;;16.25;14.50;;;;;9.91;73.63;99324.25;5035867;28;58291;-62
2022/01/04 08:25:18;;;;;;;;;14.75;12.50;;;;;9.92;73.49;99330.31;5034428;28;64465;-62
2022/01/04 08:27:43;;;;;;;;;7.50;5.00;;;;;9.92;73.28;99327.69;5036062;28;50070;-62
2022/01/04 08:30:10;;;;;;;;;8.00;8.00;;;;;9.93;73.27;99330.16;5035399;28;72295;-62
2022/01/04 08:32:37;;;;;;;;;6.25;6.25;;;;;9.94;73.27;99326.56;5036334;28;45366;-63
2022/01/04 08:35:02;;;;;;;;;13.25;9.00;;;;;9.96;73.04;99329.00;5035093;28;45515;-64
2022/01/04 08:37:29;;;;;;;;;10.75;8.25;;;;;9.97;73.30;99314.09;5036257;28;45402;-63
2022/01/04 08:39:55;;;;;;;;;12.75;10.00;;;;;9.97;73.61;99320.16;5036080;28;45260;-62
2022/01/04 08:42:22;;;;;;;;;12.50;10.00;;;;;9.99;73.47;99317.38;5036108;28;45256;-61
2022/01/04 08:44:51;;;;;;;;;6.75;6.75;;;;;10.00;73.38;99335.56;5036417;28;45471;-59
2022/01/04 08:47:16;;;;;;;;;8.50;7.25;;;;;10.01;73.36;99345.09;5036305;28;45461;-63
2022/01/04 08:49:41;;;;;;;;;6.50;6.50;;;;;10.02;73.22;99340.66;5034751;28;47215;-64
2022/01/04 08:52:07;;;;;;;;;7.25;7.25;;;;;10.03;72.94;99347.56;5035962;28;46730;-63
2022/01/04 08:54:32;;;;;;;;;10.25;8.50;;;;;10.05;72.98;99342.97;5035974;28;45367;-63
2022/01/04 08:56:58;;;;;;;;;8.25;8.25;;;;;10.04;73.28;99351.84;5035993;28;45525;-61
2022/01/04 08:59:23;;;;;;;;;10.00;8.50;;;;;10.04;73.15;99367.56;5034426;28;56663;-62
2022/01/04 09:01:49;;;;;;;;;13.75;10.25;;;;;10.05;73.43;99364.78;5036016;28;45355;-61
2022/01/04 09:04:14;;;;;;;;;13.50;10.75;;;;;10.05;73.29;99358.72;5034708;28;63771;-62
2022/01/04 09:06:40;;;;;;;;;10.50;10.50;;;;;10.04;73.01;99350.00;5037912;28;64856;-62
2022/01/04 09:09:05;;;;;;;;;8.25;8.25;;;;;10.05;73.05;99350.84;5038261;28;70622;-63
2022/01/04 09:11:30;;;;;;;;;7.50;7.50;;;;;10.06;72.86;99355.13;5039152;28;45837;-62
2022/01/04 09:14:18;;;;;;;;;11.00;9.50;;;;;10.07;72.70;99352.31;5039389;28;45675;-64
2022/01/04 09:19:25;;;;;;;;;13.00;10.50;;;;;10.08;72.76;99368.88;5039205;28;45845;-63
2022/01/04 09:21:51;;;;;;;;;8.50;8.00;;;;;10.08;73.17;99380.19;5039133;28;45217;-62
2022/01/04 09:24:17;;;;;;;;;10.50;8.00;;;;;10.09;72.94;99383.63;5039299;28;45423;-63
2022/01/04 09:26:42;;;;;;;;;8.00;8.00;;;;;10.08;72.79;99379.38;5038361;28;68043;-63
2022/01/04 09:29:07;;;;;;;;;9.75;8.00;;;;;10.09;72.77;99373.13;5038943;28;45946;-63
2022/01/04 09:31:33;;;;;;;;;8.00;8.00;;;;;10.11;73.00;99363.28;5052981;28;55217;-64
2022/01/04 09:33:59;;;;;;;;;9.75;8.00;;;;;10.12;72.93;99359.69;5056232;28;57637;-62
2022/01/04 09:36:27;;;;;;;;;12.75;12.00;;;;;10.14;72.90;99364.78;5051215;28;45556;-63
2022/01/04 09:38:52;;;;;;;;;13.50;10.25;;;;;10.15;72.86;99363.81;5056403;28;45470;-61
2022/01/04 09:41:17;;;;;;;;;8.50;8.00;;;;;10.15;72.75;99374.31;5051908;28;63009;-61
2022/01/04 09:43:43;;;;;;;;;11.00;10.50;;;;;10.16;72.53;99374.13;5040789;28;61213;-63
2022/01/04 09:46:08;;;;;;;;;18.00;17.25;;;;;10.18;72.78;99379.25;5055858;28;65723;-64
2022/01/04 09:48:33;;;;;;;;;18.00;15.00;;;;;10.16;72.69;99374.13;5043140;28;46104;-63
2022/01/04 09:50:59;;;;;;;;;9.00;9.00;;;;;10.17;73.06;99365.28;5045012;28;45709;-63
2022/01/04 09:53:24;;;;;;;;;6.00;6.00;;;;;10.16;72.99;99371.50;5042561;28;51808;-62
2022/01/04 09:55:54;;;;;;;;;5.75;5.75;;;;;10.18;72.87;99369.53;5047709;28;45420;-63
2022/01/04 09:58:21;;;;;;;;;6.50;6.50;;;;;10.18;72.83;99372.16;5050005;28;45894;-63
2022/01/04 10:00:46;;;;;;;;;6.00;6.00;;;;;10.19;72.73;99389.56;5044449;28;45579;-62
2022/01/04 10:03:25;;;;;;;;;8.50;7.00;;;;;10.23;72.58;99393.50;5054881;28;45550;-61
2022/01/04 10:06:14;;;;;;;;;9.50;7.00;;;;;10.23;72.48;99393.50;5043548;28;45498;-66
2022/01/04 10:09:11;;;;;;;;;9.00;9.00;;;;;10.24;72.36;99399.59;5055046;28;46377;-62
2022/01/04 10:11:39;;;;;;;;;10.50;8.75;;;;;10.23;72.88;99393.50;5035401;28;46147;-63
2022/01/04 10:14:24;;;;;;;;;7.50;7.50;;;;;10.27;72.40;99403.69;5064605;28;45487;-63
2022/01/04 10:16:53;;;;;;;;;10.25;8.50;;;;;10.27;72.70;99417.66;5045721;28;45424;-61
2022/01/04 10:19:28;;;;;;;;;9.00;8.50;;;;;10.26;72.25;99418.63;5044726;28;46561;-60
2022/01/04 10:22:10;;;;;;;;;9.25;6.75;;;;;10.27;72.88;99416.81;5041942;28;45953;-62
2022/01/04 10:24:36;;;;;;;;;10.00;9.50;;;;;10.27;72.33;99419.44;5042573;28;45452;-65
2022/01/04 10:27:20;;;;;;;;;13.00;10.75;;;;;10.27;72.59;99422.91;5043180;28;45622;-61
2022/01/04 10:29:46;;;;;;;;;7.00;6.25;;;;;10.28;72.72;99428.97;5044611;28;45572;-64
2022/01/04 10:32:12;;;;;;;;;12.00;9.50;;;;;10.29;72.56;99426.19;5046013;28;45326;-64
2022/01/04 10:34:47;;;;;;;;;8.00;8.00;;;;;10.30;72.63;99409.44;5044926;28;46197;-61
2022/01/04 10:37:32;;;;;;;;;8.50;7.00;;;;;10.32;72.38;99391.72;5039350;28;45514;-64
2022/01/04 10:40:04;;;;;;;;;8.00;6.75;;;;;10.36;72.71;99403.53;5047486;28;45411;-61
2022/01/04 10:42:30;;;;;;;;;8.25;7.50;;;;;10.38;72.43;99406.81;5047989;28;45476;-63
2022/01/04 10:44:55;;;;;;;;;9.00;8.00;;;;;10.38;72.23;99406.81;5042674;28;68331;-60
2022/01/04 10:47:26;;;;;;;;;8.75;7.00;;;;;10.38;72.79;99398.94;5044511;28;70566;-61
2022/01/04 10:49:51;;;;;;;;;8.25;7.00;;;;;10.40;73.06;99404.06;5047601;28;46263;-61
2022/01/04 10:52:22;;;;;;;;;8.50;8.00;;;;;10.44;72.43;99400.13;5044091;28;65171;-61
2022/01/04 10:54:51;;;;;;;;;11.50;9.75;;;;;10.47;72.49;99389.31;5041874;28;45285;-63
2022/01/04 10:57:17;;;;;;;;;9.50;9.00;;;;;10.50;72.60;99391.59;5042256;28;45439;-62
2022/01/04 10:59:42;;;;;;;;;10.25;7.75;;;;;10.53;71.95;99391.28;5044202;28;45502;-63
2022/01/04 11:02:08;;;;;;;;;9.00;7.50;;;;;10.54;72.30;99387.66;5044440;28;69644;-62
2022/01/04 11:04:34;;;;;;;;;8.00;8.00;;;;;10.60;72.59;99386.19;5048845;28;45494;-63
2022/01/04 11:07:02;;;;;;;;;9.00;8.00;;;;;10.61;72.54;99384.34;5048817;28;45676;-63
2022/01/04 11:09:27;;;;;;;;;9.00;7.50;;;;;10.63;71.97;99387.63;5049694;28;45561;-63
2022/01/04 11:11:52;;;;;;;;;5.00;5.00;;;;;10.61;72.31;99390.44;5049013;28;45290;-63
2022/01/04 11:14:18;;;;;;;;;10.75;8.75;;;;;10.63;71.74;99400.78;5049024;28;62777;-62
2022/01/04 11:16:44;;;;;;;;;9.00;7.25;;;;;10.65;71.83;99398.81;5050395;28;45530;-63
2022/01/04 11:19:09;;;;;;;;;7.50;6.00;;;;;10.66;72.17;99389.94;5051766;28;52210;-63
2022/01/04 11:21:41;;;;;;;;;13.50;13.50;;;;;10.67;72.09;99374.03;5051586;28;45472;-62
2022/01/04 11:24:08;;;;;;;;;9.50;9.50;;;;;10.70;72.24;99388.63;5050260;28;45440;-64
2022/01/04 11:26:33;;;;;;;;;11.50;8.00;;;;;10.71;72.00;99395.53;5047847;28;45525;-62
2022/01/04 11:28:59;;;;;;;;;6.00;6.00;;;;;10.72;71.81;99386.66;5047446;28;46532;-61
2022/01/04 11:31:47;;;;;;;;;9.00;6.25;;;;;10.73;71.66;99393.56;5053017;28;45500;-62
2022/01/04 11:34:50;;;;;;;;;7.50;6.00;;;;;10.75;71.91;99401.28;5048248;28;45788;-62
2022/01/04 11:37:20;;;;;;;;;7.00;5.75;;;;;10.75;71.33;99407.34;5050480;28;45632;-61
2022/01/04 11:39:45;;;;;;;;;7.50;7.50;;;;;10.75;71.47;99404.72;5051114;28;45559;-62
2022/01/04 11:42:13;;;;;;;;;8.50;7.25;;;;;10.76;71.80;99398.47;5049875;28;65768;-64